sensor_id;sensor_type;location;lat;lon;timestamp;temperature;humidity
55369;DHT22;41247;49.736;8.752;2023-08-24T00:02:18;18.00;99.90
55369;DHT22;41247;49.736;8.752;2023-08-24T00:05:59;17.90;99.90
55369;DHT22;41247;49.736;8.752;2023-08-24T00:09:39;17.80;99.90
55369;DHT22;41247;49.736;8.752;2023-08-24T00:13:20;17.80;99.90
55369;DHT22;41247;49.736;8.752;2023-08-24T00:17:00;17.80;99.90
55369;DHT22;41247;49.736;8.752;2023-08-24T00:20:41;17.80;99.90
55369;DHT22;41247;49.736;8.752;2023-08-24T00:24:22;17.80;99.90
55369;DHT22;41247;49.736;8.752;2023-08-24T00:28:02;17.70;99.90
55369;DHT22;41247;49.736;8.752;2023-08-24T00:31:43;17.70;99.90
55369;DHT22;41247;49.736;8.752;2023-08-24T00:35:24;17.60;99.90
55369;DHT22;41247;49.736;8.752;2023-08-24T00:39:05;17.60;99.90
55369;DHT22;41247;49.736;8.752;2023-08-24T00:42:45;17.50;99.90
55369;DHT22;41247;49.736;8.752;2023-08-24T00:46:26;17.50;99.90
55369;DHT22;41247;49.736;8.752;2023-08-24T00:50:08;17.50;99.90
55369;DHT22;41247;49.736;8.752;2023-08-24T00:53:49;17.50;99.90
55369;DHT22;41247;49.736;8.752;2023-08-24T00:57:29;17.50;99.90
55369;DHT22;41247;49.736;8.752;2023-08-24T01:01:10;17.50;99.90
55369;DHT22;41247;49.736;8.752;2023-08-24T01:04:51;17.50;99.90
55369;DHT22;41247;49.736;8.752;2023-08-24T01:08:32;17.60;99.90
55369;DHT22;41247;49.736;8.752;2023-08-24T01:12:22;17.60;99.90
55369;DHT22;41247;49.736;8.752;2023-08-24T01:16:13;17.60;99.90
55369;DHT22;41247;49.736;8.752;2023-08-24T01:19:58;17.60;99.90
55369;DHT22;41247;49.736;8.752;2023-08-24T01:27:48;17.60;99.90
55369;DHT22;41247;49.736;8.752;2023-08-24T01:31:30;17.60;99.90
55369;DHT22;41247;49.736;8.752;2023-08-24T01:35:11;17.60;99.90
55369;DHT22;41247;49.736;8.752;2023-08-24T01:39:02;17.50;99.90
55369;DHT22;41247;49.736;8.752;2023-08-24T01:42:59;17.50;99.90
55369;DHT22;41247;49.736;8.752;2023-08-24T01:46:44;17.50;99.90
55369;DHT22;41247;49.736;8.752;2023-08-24T01:50:25;17.40;99.90
55369;DHT22;41247;49.736;8.752;2023-08-24T01:54:06;17.50;99.90
55369;DHT22;41247;49.736;8.752;2023-08-24T01:57:48;17.50;99.90
55369;DHT22;41247;49.736;8.752;2023-08-24T02:01:29;17.40;99.90
55369;DHT22;41247;49.736;8.752;2023-08-24T02:05:09;17.40;99.90
55369;DHT22;41247;49.736;8.752;2023-08-24T02:08:50;17.30;99.90
55369;DHT22;41247;49.736;8.752;2023-08-24T02:12:30;17.30;99.90
55369;DHT22;41247;49.736;8.752;2023-08-24T02:16:11;17.30;99.90
55369;DHT22;41247;49.736;8.752;2023-08-24T02:19:52;17.30;99.90
55369;DHT22;41247;49.736;8.752;2023-08-24T02:23:32;17.20;99.90
55369;DHT22;41247;49.736;8.752;2023-08-24T02:27:13;17.20;99.90
55369;DHT22;41247;49.736;8.752;2023-08-24T02:30:53;17.20;99.90
55369;DHT22;41247;49.736;8.752;2023-08-24T02:34:34;17.30;99.90
55369;DHT22;41247;49.736;8.752;2023-08-24T02:38:14;17.30;99.90
55369;DHT22;41247;49.736;8.752;2023-08-24T02:41:55;17.20;99.90
55369;DHT22;41247;49.736;8.752;2023-08-24T02:45:36;17.30;99.90
55369;DHT22;41247;49.736;8.752;2023-08-24T02:49:16;17.30;99.90
55369;DHT22;41247;49.736;8.752;2023-08-24T02:52:57;17.30;99.90
55369;DHT22;41247;49.736;8.752;2023-08-24T02:56:37;17.30;99.90
55369;DHT22;41247;49.736;8.752;2023-08-24T03:00:18;17.30;99.90
55369;DHT22;41247;49.736;8.752;2023-08-24T03:03:59;17.30;99.90
55369;DHT22;41247;49.736;8.752;2023-08-24T03:07:39;17.30;99.90
55369;DHT22;41247;49.736;8.752;2023-08-24T03:11:20;17.30;99.90
55369;DHT22;41247;49.736;8.752;2023-08-24T03:15:00;17.30;99.90
55369;DHT22;41247;49.736;8.752;2023-08-24T03:18:41;17.40;99.90
55369;DHT22;41247;49.736;8.752;2023-08-24T03:22:21;17.40;99.90
55369;DHT22;41247;49.736;8.752;2023-08-24T03:26:02;17.50;99.90
55369;DHT22;41247;49.736;8.752;2023-08-24T03:29:43;17.50;99.90
55369;DHT22;41247;49.736;8.752;2023-08-24T03:33:23;17.60;99.90
55369;DHT22;41247;49.736;8.752;2023-08-24T03:37:05;17.60;99.90
55369;DHT22;41247;49.736;8.752;2023-08-24T03:40:46;17.70;99.90
55369;DHT22;41247;49.736;8.752;2023-08-24T03:44:26;17.70;99.90
55369;DHT22;41247;49.736;8.752;2023-08-24T03:48:07;17.80;99.90
55369;DHT22;41247;49.736;8.752;2023-08-24T03:51:48;17.80;99.90
55369;DHT22;41247;49.736;8.752;2023-08-24T03:55:28;18.00;99.90
55369;DHT22;41247;49.736;8.752;2023-08-24T03:59:09;18.10;99.90
55369;DHT22;41247;49.736;8.752;2023-08-24T04:02:50;18.20;99.90
55369;DHT22;41247;49.736;8.752;2023-08-24T04:06:30;18.40;99.90
55369;DHT22;41247;49.736;8.752;2023-08-24T04:10:11;18.50;99.90
55369;DHT22;41247;49.736;8.752;2023-08-24T04:13:51;18.60;99.90
55369;DHT22;41247;49.736;8.752;2023-08-24T04:17:32;18.60;99.90
55369;DHT22;41247;49.736;8.752;2023-08-24T04:21:13;18.70;99.90
55369;DHT22;41247;49.736;8.752;2023-08-24T04:24:53;18.80;99.90
55369;DHT22;41247;49.736;8.752;2023-08-24T04:28:34;18.70;99.90
55369;DHT22;41247;49.736;8.752;2023-08-24T04:32:14;18.70;99.90
55369;DHT22;41247;49.736;8.752;2023-08-24T04:35:55;18.70;99.90
55369;DHT22;41247;49.736;8.752;2023-08-24T04:39:36;18.60;99.90
55369;DHT22;41247;49.736;8.752;2023-08-24T04:43:17;18.60;99.90
55369;DHT22;41247;49.736;8.752;2023-08-24T04:46:59;18.60;99.90
55369;DHT22;41247;49.736;8.752;2023-08-24T04:50:41;18.60;99.90
55369;DHT22;41247;49.736;8.752;2023-08-24T04:54:23;18.60;99.90
55369;DHT22;41247;49.736;8.752;2023-08-24T04:58:04;18.70;99.90
55369;DHT22;41247;49.736;8.752;2023-08-24T05:01:44;18.80;99.90
55369;DHT22;41247;49.736;8.752;2023-08-24T05:05:25;18.90;99.90
55369;DHT22;41247;49.736;8.752;2023-08-24T05:09:05;19.10;99.90
55369;DHT22;41247;49.736;8.752;2023-08-24T05:12:46;19.20;99.90
55369;DHT22;41247;49.736;8.752;2023-08-24T05:16:26;19.30;99.90
55369;DHT22;41247;49.736;8.752;2023-08-24T05:20:08;19.40;99.90
55369;DHT22;41247;49.736;8.752;2023-08-24T05:23:49;19.40;99.90
55369;DHT22;41247;49.736;8.752;2023-08-24T05:27:29;19.50;99.90
55369;DHT22;41247;49.736;8.752;2023-08-24T05:31:10;19.50;99.90
55369;DHT22;41247;49.736;8.752;2023-08-24T05:34:50;19.60;99.90
55369;DHT22;41247;49.736;8.752;2023-08-24T05:38:31;19.60;99.90
55369;DHT22;41247;49.736;8.752;2023-08-24T05:42:11;19.60;99.90
55369;DHT22;41247;49.736;8.752;2023-08-24T05:45:52;19.60;99.90
55369;DHT22;41247;49.736;8.752;2023-08-24T05:49:33;19.60;99.90
55369;DHT22;41247;49.736;8.752;2023-08-24T05:53:13;19.50;99.90
55369;DHT22;41247;49.736;8.752;2023-08-24T05:56:54;19.50;99.90
55369;DHT22;41247;49.736;8.752;2023-08-24T06:00:35;19.50;99.90
55369;DHT22;41247;49.736;8.752;2023-08-24T06:04:15;19.50;99.90
55369;DHT22;41247;49.736;8.752;2023-08-24T06:07:56;19.50;99.90
55369;DHT22;41247;49.736;8.752;2023-08-24T06:11:37;19.60;99.90
55369;DHT22;41247;49.736;8.752;2023-08-24T06:15:17;19.70;99.90
55369;DHT22;41247;49.736;8.752;2023-08-24T06:18:58;19.90;99.90
55369;DHT22;41247;49.736;8.752;2023-08-24T06:22:38;20.00;99.90
55369;DHT22;41247;49.736;8.752;2023-08-24T06:26:19;20.20;99.90
55369;DHT22;41247;49.736;8.752;2023-08-24T06:30:00;20.20;99.90
55369;DHT22;41247;49.736;8.752;2023-08-24T06:33:40;20.30;99.90
55369;DHT22;41247;49.736;8.752;2023-08-24T06:37:21;20.30;99.90
55369;DHT22;41247;49.736;8.752;2023-08-24T06:41:01;20.30;99.90
55369;DHT22;41247;49.736;8.752;2023-08-24T06:44:42;20.40;99.90
55369;DHT22;41247;49.736;8.752;2023-08-24T06:48:23;20.50;99.90
55369;DHT22;41247;49.736;8.752;2023-08-24T06:52:03;20.50;99.90
55369;DHT22;41247;49.736;8.752;2023-08-24T06:55:44;20.40;99.90
55369;DHT22;41247;49.736;8.752;2023-08-24T06:59:25;20.30;99.90
55369;DHT22;41247;49.736;8.752;2023-08-24T07:03:05;20.30;99.90
55369;DHT22;41247;49.736;8.752;2023-08-24T07:06:46;20.30;99.90
55369;DHT22;41247;49.736;8.752;2023-08-24T07:10:27;20.30;99.90
55369;DHT22;41247;49.736;8.752;2023-08-24T07:14:07;20.30;99.90
55369;DHT22;41247;49.736;8.752;2023-08-24T07:17:48;20.30;99.90
55369;DHT22;41247;49.736;8.752;2023-08-24T07:21:28;20.50;99.90
55369;DHT22;41247;49.736;8.752;2023-08-24T07:25:09;20.60;99.90
55369;DHT22;41247;49.736;8.752;2023-08-24T07:28:49;20.80;99.90
55369;DHT22;41247;49.736;8.752;2023-08-24T07:32:30;21.10;99.90
55369;DHT22;41247;49.736;8.752;2023-08-24T07:36:11;21.30;99.90
55369;DHT22;41247;49.736;8.752;2023-08-24T07:39:51;21.50;99.90
55369;DHT22;41247;49.736;8.752;2023-08-24T07:43:32;21.70;99.90
55369;DHT22;41247;49.736;8.752;2023-08-24T07:47:14;22.10;99.90
55369;DHT22;41247;49.736;8.752;2023-08-24T07:50:54;22.40;99.90
55369;DHT22;41247;49.736;8.752;2023-08-24T07:54:35;22.70;99.90
55369;DHT22;41247;49.736;8.752;2023-08-24T07:58:16;23.10;99.90
55369;DHT22;41247;49.736;8.752;2023-08-24T08:01:56;23.30;99.90
55369;DHT22;41247;49.736;8.752;2023-08-24T08:05:37;23.40;99.90
55369;DHT22;41247;49.736;8.752;2023-08-24T08:09:17;23.40;99.90
55369;DHT22;41247;49.736;8.752;2023-08-24T08:12:58;23.40;99.90
55369;DHT22;41247;49.736;8.752;2023-08-24T08:16:39;23.30;99.90
55369;DHT22;41247;49.736;8.752;2023-08-24T08:20:19;23.20;99.90
55369;DHT22;41247;49.736;8.752;2023-08-24T08:24:00;23.20;99.90
55369;DHT22;41247;49.736;8.752;2023-08-24T08:27:40;23.10;99.90
55369;DHT22;41247;49.736;8.752;2023-08-24T08:35:59;23.40;99.90
55369;DHT22;41247;49.736;8.752;2023-08-24T08:39:40;23.80;99.90
55369;DHT22;41247;49.736;8.752;2023-08-24T08:43:22;24.10;99.90
55369;DHT22;41247;49.736;8.752;2023-08-24T08:47:03;24.00;99.90
55369;DHT22;41247;49.736;8.752;2023-08-24T08:50:44;23.80;99.90
55369;DHT22;41247;49.736;8.752;2023-08-24T08:54:25;23.70;99.90
55369;DHT22;41247;49.736;8.752;2023-08-24T08:58:05;23.50;99.90
55369;DHT22;41247;49.736;8.752;2023-08-24T09:01:47;23.50;99.90
55369;DHT22;41247;49.736;8.752;2023-08-24T09:05:27;23.60;99.90
55369;DHT22;41247;49.736;8.752;2023-08-24T09:09:08;23.80;99.90
55369;DHT22;41247;49.736;8.752;2023-08-24T09:12:49;24.20;99.90
55369;DHT22;41247;49.736;8.752;2023-08-24T09:16:30;24.40;99.90
55369;DHT22;41247;49.736;8.752;2023-08-24T09:20:11;24.40;99.90
55369;DHT22;41247;49.736;8.752;2023-08-24T09:23:55;24.50;99.90
55369;DHT22;41247;49.736;8.752;2023-08-24T09:27:36;24.60;99.90
55369;DHT22;41247;49.736;8.752;2023-08-24T09:31:17;24.70;99.90
55369;DHT22;41247;49.736;8.752;2023-08-24T09:35:08;25.10;99.90
55369;DHT22;41247;49.736;8.752;2023-08-24T09:38:49;25.50;99.90
55369;DHT22;41247;49.736;8.752;2023-08-24T09:42:32;25.70;99.90
55369;DHT22;41247;49.736;8.752;2023-08-24T09:46:19;25.90;99.90
55369;DHT22;41247;49.736;8.752;2023-08-24T09:49:59;26.20;99.90
55369;DHT22;41247;49.736;8.752;2023-08-24T09:53:41;26.30;99.90
55369;DHT22;41247;49.736;8.752;2023-08-24T09:57:22;26.30;99.90
55369;DHT22;41247;49.736;8.752;2023-08-24T10:01:03;26.30;99.90
55369;DHT22;41247;49.736;8.752;2023-08-24T10:04:44;26.40;99.90
55369;DHT22;41247;49.736;8.752;2023-08-24T10:08:36;26.60;99.90
55369;DHT22;41247;49.736;8.752;2023-08-24T10:12:19;26.60;99.90
55369;DHT22;41247;49.736;8.752;2023-08-24T10:16:01;26.60;99.90
55369;DHT22;41247;49.736;8.752;2023-08-24T10:19:43;26.60;99.90
55369;DHT22;41247;49.736;8.752;2023-08-24T10:23:30;26.90;99.90
55369;DHT22;41247;49.736;8.752;2023-08-24T10:27:11;27.20;99.90
55369;DHT22;41247;49.736;8.752;2023-08-24T10:30:54;27.50;99.90
55369;DHT22;41247;49.736;8.752;2023-08-24T10:34:35;27.60;99.90
55369;DHT22;41247;49.736;8.752;2023-08-24T10:38:24;27.90;99.90
55369;DHT22;41247;49.736;8.752;2023-08-24T10:42:10;28.10;99.90
55369;DHT22;41247;49.736;8.752;2023-08-24T10:46:00;28.20;99.90
55369;DHT22;41247;49.736;8.752;2023-08-24T10:49:42;28.40;99.90
55369;DHT22;41247;49.736;8.752;2023-08-24T10:53:39;28.60;99.90
55369;DHT22;41247;49.736;8.752;2023-08-24T10:57:24;28.80;99.90
55369;DHT22;41247;49.736;8.752;2023-08-24T11:01:06;28.90;99.90
55369;DHT22;41247;49.736;8.752;2023-08-24T11:05:06;28.90;99.90
55369;DHT22;41247;49.736;8.752;2023-08-24T11:09:09;28.80;99.90
55369;DHT22;41247;49.736;8.752;2023-08-24T11:13:09;28.80;99.90
55369;DHT22;41247;49.736;8.752;2023-08-24T11:16:57;29.00;99.90
55369;DHT22;41247;49.736;8.752;2023-08-24T11:21:05;29.20;99.90
55369;DHT22;41247;49.736;8.752;2023-08-24T11:24:46;29.50;99.90
55369;DHT22;41247;49.736;8.752;2023-08-24T11:28:29;29.60;99.90
55369;DHT22;41247;49.736;8.752;2023-08-24T11:32:10;29.80;99.90
55369;DHT22;41247;49.736;8.752;2023-08-24T11:35:51;30.00;99.90
55369;DHT22;41247;49.736;8.752;2023-08-24T11:39:32;30.30;99.90
55369;DHT22;41247;49.736;8.752;2023-08-24T11:43:12;30.50;99.90
55369;DHT22;41247;49.736;8.752;2023-08-24T11:47:02;30.40;99.90
55369;DHT22;41247;49.736;8.752;2023-08-24T11:50:42;30.40;99.90
55369;DHT22;41247;49.736;8.752;2023-08-24T11:54:23;30.20;99.90
55369;DHT22;41247;49.736;8.752;2023-08-24T11:58:04;30.20;99.90
55369;DHT22;41247;49.736;8.752;2023-08-24T12:01:45;30.30;99.90
55369;DHT22;41247;49.736;8.752;2023-08-24T12:05:26;30.50;99.90
55369;DHT22;41247;49.736;8.752;2023-08-24T12:09:07;30.50;99.90
55369;DHT22;41247;49.736;8.752;2023-08-24T12:12:47;30.60;99.90
55369;DHT22;41247;49.736;8.752;2023-08-24T12:16:31;30.60;99.90
55369;DHT22;41247;49.736;8.752;2023-08-24T12:20:20;30.20;99.90
55369;DHT22;41247;49.736;8.752;2023-08-24T12:24:03;30.10;99.90
55369;DHT22;41247;49.736;8.752;2023-08-24T12:27:45;30.20;99.90
55369;DHT22;41247;49.736;8.752;2023-08-24T12:31:26;30.50;99.90
55369;DHT22;41247;49.736;8.752;2023-08-24T12:35:08;30.60;99.90
55369;DHT22;41247;49.736;8.752;2023-08-24T12:38:49;30.70;99.90
55369;DHT22;41247;49.736;8.752;2023-08-24T12:42:30;30.80;99.90
55369;DHT22;41247;49.736;8.752;2023-08-24T12:46:10;30.90;99.90
55369;DHT22;41247;49.736;8.752;2023-08-24T12:49:51;30.80;99.90
55369;DHT22;41247;49.736;8.752;2023-08-24T12:53:32;30.90;99.90
55369;DHT22;41247;49.736;8.752;2023-08-24T12:57:13;30.80;99.90
55369;DHT22;41247;49.736;8.752;2023-08-24T13:00:53;30.90;99.90
55369;DHT22;41247;49.736;8.752;2023-08-24T13:04:34;31.00;99.90
55369;DHT22;41247;49.736;8.752;2023-08-24T13:08:14;30.90;99.90
55369;DHT22;41247;49.736;8.752;2023-08-24T13:11:55;31.00;99.90
55369;DHT22;41247;49.736;8.752;2023-08-24T13:15:36;31.00;99.90
55369;DHT22;41247;49.736;8.752;2023-08-24T13:19:16;30.90;99.90
55369;DHT22;41247;49.736;8.752;2023-08-24T13:22:57;30.70;99.90
55369;DHT22;41247;49.736;8.752;2023-08-24T13:26:37;30.50;99.90
55369;DHT22;41247;49.736;8.752;2023-08-24T13:30:18;30.30;99.90
55369;DHT22;41247;49.736;8.752;2023-08-24T13:33:58;30.30;99.90
55369;DHT22;41247;49.736;8.752;2023-08-24T13:37:39;30.20;99.90
55369;DHT22;41247;49.736;8.752;2023-08-24T13:41:20;30.10;99.90
55369;DHT22;41247;49.736;8.752;2023-08-24T13:45:00;29.80;99.90
55369;DHT22;41247;49.736;8.752;2023-08-24T13:48:43;29.70;99.90
55369;DHT22;41247;49.736;8.752;2023-08-24T13:52:24;29.60;99.90
55369;DHT22;41247;49.736;8.752;2023-08-24T13:56:05;29.70;99.90
55369;DHT22;41247;49.736;8.752;2023-08-24T13:59:46;30.10;99.90
55369;DHT22;41247;49.736;8.752;2023-08-24T14:03:26;30.60;99.90
55369;DHT22;41247;49.736;8.752;2023-08-24T14:07:07;30.80;99.90
55369;DHT22;41247;49.736;8.752;2023-08-24T14:10:47;30.60;99.90
55369;DHT22;41247;49.736;8.752;2023-08-24T14:14:28;30.30;99.90
55369;DHT22;41247;49.736;8.752;2023-08-24T14:18:11;30.10;99.90
55369;DHT22;41247;49.736;8.752;2023-08-24T14:21:52;29.70;99.90
55369;DHT22;41247;49.736;8.752;2023-08-24T14:25:33;29.30;99.90
55369;DHT22;41247;49.736;8.752;2023-08-24T14:29:13;29.00;99.90
55369;DHT22;41247;49.736;8.752;2023-08-24T14:32:54;28.60;99.90
55369;DHT22;41247;49.736;8.752;2023-08-24T14:36:35;28.40;99.90
55369;DHT22;41247;49.736;8.752;2023-08-24T14:40:15;28.00;99.90
55369;DHT22;41247;49.736;8.752;2023-08-24T14:43:56;27.70;99.90
55369;DHT22;41247;49.736;8.752;2023-08-24T14:47:37;27.40;99.90
55369;DHT22;41247;49.736;8.752;2023-08-24T14:51:17;27.00;99.90
55369;DHT22;41247;49.736;8.752;2023-08-24T14:54:58;26.60;99.90
55369;DHT22;41247;49.736;8.752;2023-08-24T14:58:38;26.40;99.90
55369;DHT22;41247;49.736;8.752;2023-08-24T15:02:19;26.20;99.90
55369;DHT22;41247;49.736;8.752;2023-08-24T15:06:02;25.90;99.90
55369;DHT22;41247;49.736;8.752;2023-08-24T15:09:43;25.60;99.90
55369;DHT22;41247;49.736;8.752;2023-08-24T15:13:24;25.30;99.90
55369;DHT22;41247;49.736;8.752;2023-08-24T15:17:05;25.10;99.90
55369;DHT22;41247;49.736;8.752;2023-08-24T15:20:46;24.70;99.90
55369;DHT22;41247;49.736;8.752;2023-08-24T15:24:27;24.40;99.90
55369;DHT22;41247;49.736;8.752;2023-08-24T15:28:07;24.30;99.90
55369;DHT22;41247;49.736;8.752;2023-08-24T15:31:48;24.20;99.90
55369;DHT22;41247;49.736;8.752;2023-08-24T15:35:28;24.20;99.90
55369;DHT22;41247;49.736;8.752;2023-08-24T15:39:09;24.10;99.90
55369;DHT22;41247;49.736;8.752;2023-08-24T15:42:49;24.00;99.90
55369;DHT22;41247;49.736;8.752;2023-08-24T15:46:30;23.80;99.90
55369;DHT22;41247;49.736;8.752;2023-08-24T15:50:11;23.60;99.90
55369;DHT22;41247;49.736;8.752;2023-08-24T15:53:51;23.50;99.90
55369;DHT22;41247;49.736;8.752;2023-08-24T15:57:32;23.40;99.90
55369;DHT22;41247;49.736;8.752;2023-08-24T16:01:13;23.20;99.90
55369;DHT22;41247;49.736;8.752;2023-08-24T16:04:53;23.30;99.90
55369;DHT22;41247;49.736;8.752;2023-08-24T16:08:34;23.30;99.90
55369;DHT22;41247;49.736;8.752;2023-08-24T16:12:14;23.40;99.90
55369;DHT22;41247;49.736;8.752;2023-08-24T16:16:08;23.60;99.90
55369;DHT22;41247;49.736;8.752;2023-08-24T16:19:49;23.70;99.90
55369;DHT22;41247;49.736;8.752;2023-08-24T16:32:03;24.10;99.90
55369;DHT22;41247;49.736;8.752;2023-08-24T16:35:44;24.10;99.90
55369;DHT22;41247;49.736;8.752;2023-08-24T16:39:25;24.10;99.90
55369;DHT22;41247;49.736;8.752;2023-08-24T16:43:06;24.10;99.90
55369;DHT22;41247;49.736;8.752;2023-08-24T16:46:46;23.90;99.90
55369;DHT22;41247;49.736;8.752;2023-08-24T16:50:27;23.80;99.90
55369;DHT22;41247;49.736;8.752;2023-08-24T16:54:30;23.70;99.90
55369;DHT22;41247;49.736;8.752;2023-08-24T16:58:12;23.70;99.90
55369;DHT22;41247;49.736;8.752;2023-08-24T17:01:54;23.60;99.90
55369;DHT22;41247;49.736;8.752;2023-08-24T17:05:34;23.60;99.90
55369;DHT22;41247;49.736;8.752;2023-08-24T17:09:15;23.40;99.90
55369;DHT22;41247;49.736;8.752;2023-08-24T17:12:56;23.20;99.90
55369;DHT22;41247;49.736;8.752;2023-08-24T17:16:36;23.10;99.90
55369;DHT22;41247;49.736;8.752;2023-08-24T17:20:17;23.00;99.90
55369;DHT22;41247;49.736;8.752;2023-08-24T17:24:06;22.90;99.90
55369;DHT22;41247;49.736;8.752;2023-08-24T17:27:46;22.80;99.90
55369;DHT22;41247;49.736;8.752;2023-08-24T17:31:41;22.60;99.90
55369;DHT22;41247;49.736;8.752;2023-08-24T17:36:06;22.50;99.90
55369;DHT22;41247;49.736;8.752;2023-08-24T17:39:46;22.30;99.90
55369;DHT22;41247;49.736;8.752;2023-08-24T17:43:27;21.80;99.90
55369;DHT22;41247;49.736;8.752;2023-08-24T17:47:08;20.80;99.90
55369;DHT22;41247;49.736;8.752;2023-08-24T17:50:55;20.30;99.90
55369;DHT22;41247;49.736;8.752;2023-08-24T17:54:40;20.00;99.90
55369;DHT22;41247;49.736;8.752;2023-08-24T17:58:21;20.10;99.90
55369;DHT22;41247;49.736;8.752;2023-08-24T18:02:02;20.20;99.90
55369;DHT22;41247;49.736;8.752;2023-08-24T18:05:45;20.20;99.90
55369;DHT22;41247;49.736;8.752;2023-08-24T18:09:26;20.10;99.90
55369;DHT22;41247;49.736;8.752;2023-08-24T18:13:06;20.00;99.90
55369;DHT22;41247;49.736;8.752;2023-08-24T18:16:47;19.90;99.90
55369;DHT22;41247;49.736;8.752;2023-08-24T18:20:35;19.80;99.90
55369;DHT22;41247;49.736;8.752;2023-08-24T18:24:18;19.60;99.90
55369;DHT22;41247;49.736;8.752;2023-08-24T18:28:07;19.50;99.90
55369;DHT22;41247;49.736;8.752;2023-08-24T18:31:59;19.30;99.90
55369;DHT22;41247;49.736;8.752;2023-08-24T18:35:50;19.20;99.90
55369;DHT22;41247;49.736;8.752;2023-08-24T18:39:34;19.20;99.90
55369;DHT22;41247;49.736;8.752;2023-08-24T18:43:23;19.10;99.90
55369;DHT22;41247;49.736;8.752;2023-08-24T18:47:07;19.20;99.90
55369;DHT22;41247;49.736;8.752;2023-08-24T18:50:57;19.20;99.90
55369;DHT22;41247;49.736;8.752;2023-08-24T18:54:51;19.20;99.90
55369;DHT22;41247;49.736;8.752;2023-08-24T18:58:32;19.10;99.90
55369;DHT22;41247;49.736;8.752;2023-08-24T19:02:13;19.10;99.90
55369;DHT22;41247;49.736;8.752;2023-08-24T19:05:53;19.10;99.90
55369;DHT22;41247;49.736;8.752;2023-08-24T19:09:34;19.00;99.90
55369;DHT22;41247;49.736;8.752;2023-08-24T19:13:14;19.00;99.90
55369;DHT22;41247;49.736;8.752;2023-08-24T19:16:58;18.90;99.90
55369;DHT22;41247;49.736;8.752;2023-08-24T19:20:41;18.90;99.90
55369;DHT22;41247;49.736;8.752;2023-08-24T19:24:22;18.90;99.90
55369;DHT22;41247;49.736;8.752;2023-08-24T19:28:03;18.90;99.90
55369;DHT22;41247;49.736;8.752;2023-08-24T19:31:44;18.90;99.90
55369;DHT22;41247;49.736;8.752;2023-08-24T19:35:24;18.90;99.90
55369;DHT22;41247;49.736;8.752;2023-08-24T19:39:05;18.90;99.90
55369;DHT22;41247;49.736;8.752;2023-08-24T19:42:55;18.80;99.90
55369;DHT22;41247;49.736;8.752;2023-08-24T19:46:36;18.90;99.90
55369;DHT22;41247;49.736;8.752;2023-08-24T19:50:27;19.10;99.90
55369;DHT22;41247;49.736;8.752;2023-08-24T19:54:10;19.30;99.90
55369;DHT22;41247;49.736;8.752;2023-08-24T19:58:00;19.50;99.90
55369;DHT22;41247;49.736;8.752;2023-08-24T20:01:46;19.60;99.90
55369;DHT22;41247;49.736;8.752;2023-08-24T20:05:36;19.70;99.90
55369;DHT22;41247;49.736;8.752;2023-08-24T20:09:32;19.60;99.90
55369;DHT22;41247;49.736;8.752;2023-08-24T20:13:47;19.70;99.90
55369;DHT22;41247;49.736;8.752;2023-08-24T20:17:44;19.70;99.90
55369;DHT22;41247;49.736;8.752;2023-08-24T20:40:48;19.90;99.90
55369;DHT22;41247;49.736;8.752;2023-08-24T20:50:27;19.90;99.90
55369;DHT22;41247;49.736;8.752;2023-08-24T20:54:08;20.10;99.90
55369;DHT22;41247;49.736;8.752;2023-08-24T20:57:49;20.10;99.90
55369;DHT22;41247;49.736;8.752;2023-08-24T21:01:29;20.00;99.90
55369;DHT22;41247;49.736;8.752;2023-08-24T21:05:10;20.10;99.90
55369;DHT22;41247;49.736;8.752;2023-08-24T21:08:58;19.90;99.90
55369;DHT22;41247;49.736;8.752;2023-08-24T21:12:42;19.90;99.90
55369;DHT22;41247;49.736;8.752;2023-08-24T21:16:22;19.80;99.90
55369;DHT22;41247;49.736;8.752;2023-08-24T21:20:03;19.70;99.90
55369;DHT22;41247;49.736;8.752;2023-08-24T21:23:44;19.60;99.90
55369;DHT22;41247;49.736;8.752;2023-08-24T21:27:28;19.50;99.90
55369;DHT22;41247;49.736;8.752;2023-08-24T21:31:09;19.40;99.90
55369;DHT22;41247;49.736;8.752;2023-08-24T21:34:49;19.30;99.90
55369;DHT22;41247;49.736;8.752;2023-08-24T21:38:30;19.20;99.90
55369;DHT22;41247;49.736;8.752;2023-08-24T21:42:16;19.20;99.90
55369;DHT22;41247;49.736;8.752;2023-08-24T21:45:59;19.30;99.90
55369;DHT22;41247;49.736;8.752;2023-08-24T21:49:40;19.40;99.90
55369;DHT22;41247;49.736;8.752;2023-08-24T21:53:21;19.50;99.90
55369;DHT22;41247;49.736;8.752;2023-08-24T21:57:02;19.60;99.90
55369;DHT22;41247;49.736;8.752;2023-08-24T22:00:47;19.60;99.90
55369;DHT22;41247;49.736;8.752;2023-08-24T22:04:28;19.60;99.90
55369;DHT22;41247;49.736;8.752;2023-08-24T22:08:08;19.60;99.90
55369;DHT22;41247;49.736;8.752;2023-08-24T22:11:49;19.50;99.90
55369;DHT22;41247;49.736;8.752;2023-08-24T22:15:29;19.40;99.90
55369;DHT22;41247;49.736;8.752;2023-08-24T22:19:10;19.30;99.90
55369;DHT22;41247;49.736;8.752;2023-08-24T22:22:50;19.20;99.90
55369;DHT22;41247;49.736;8.752;2023-08-24T22:26:31;19.30;99.90
55369;DHT22;41247;49.736;8.752;2023-08-24T22:30:12;19.30;99.90
55369;DHT22;41247;49.736;8.752;2023-08-24T22:33:53;19.40;99.90
55369;DHT22;41247;49.736;8.752;2023-08-24T22:37:34;19.40;99.90
55369;DHT22;41247;49.736;8.752;2023-08-24T22:41:14;19.50;99.90
55369;DHT22;41247;49.736;8.752;2023-08-24T22:44:55;19.50;99.90
55369;DHT22;41247;49.736;8.752;2023-08-24T22:48:38;19.60;99.90
55369;DHT22;41247;49.736;8.752;2023-08-24T22:52:21;19.60;99.90
55369;DHT22;41247;49.736;8.752;2023-08-24T22:56:02;19.60;99.90
55369;DHT22;41247;49.736;8.752;2023-08-24T22:59:42;19.50;99.90
55369;DHT22;41247;49.736;8.752;2023-08-24T23:03:23;19.40;99.90
55369;DHT22;41247;49.736;8.752;2023-08-24T23:07:04;19.40;99.90
55369;DHT22;41247;49.736;8.752;2023-08-24T23:10:45;19.30;99.90
55369;DHT22;41247;49.736;8.752;2023-08-24T23:14:26;19.20;99.90
55369;DHT22;41247;49.736;8.752;2023-08-24T23:18:06;19.10;99.90
55369;DHT22;41247;49.736;8.752;2023-08-24T23:21:48;19.10;99.90
55369;DHT22;41247;49.736;8.752;2023-08-24T23:25:29;19.00;99.90
55369;DHT22;41247;49.736;8.752;2023-08-24T23:29:13;19.10;99.90
55369;DHT22;41247;49.736;8.752;2023-08-24T23:33:00;19.30;99.90
55369;DHT22;41247;49.736;8.752;2023-08-24T23:36:42;19.40;99.90
55369;DHT22;41247;49.736;8.752;2023-08-24T23:40:26;19.50;99.90
55369;DHT22;41247;49.736;8.752;2023-08-24T23:44:07;19.50;99.90
55369;DHT22;41247;49.736;8.752;2023-08-24T23:47:50;19.60;99.90
55369;DHT22;41247;49.736;8.752;2023-08-24T23:51:31;19.70;99.90
55369;DHT22;41247;49.736;8.752;2023-08-24T23:55:19;19.70;99.90
55369;DHT22;41247;49.736;8.752;2023-08-24T23:59:00;19.80;99.90
